sensor_id;sensor_type;location;lat;lon;timestamp;temperature;humidity
44063;DHT22;29727;47.606;19.130;2023-03-20T05:45:10;8.60;66.10
44063;DHT22;29727;47.606;19.130;2023-03-20T05:47:36;8.80;66.70
44063;DHT22;29727;47.606;19.130;2023-03-20T05:50:02;8.80;66.50
44063;DHT22;29727;47.606;19.130;2023-03-20T05:52:28;8.80;66.70
44063;DHT22;29727;47.606;19.130;2023-03-20T05:54:54;8.80;67.30
44063;DHT22;29727;47.606;19.130;2023-03-20T05:57:19;8.80;67.40
44063;DHT22;29727;47.606;19.130;2023-03-20T05:59:46;8.90;68.20
44063;DHT22;29727;47.606;19.130;2023-03-20T06:02:11;8.80;68.60
44063;DHT22;29727;47.606;19.130;2023-03-20T06:04:37;8.80;69.10
44063;DHT22;29727;47.606;19.130;2023-03-20T06:07:04;8.70;68.60
44063;DHT22;29727;47.606;19.130;2023-03-20T06:09:30;8.80;68.50
44063;DHT22;29727;47.606;19.130;2023-03-20T06:11:57;8.80;67.40
44063;DHT22;29727;47.606;19.130;2023-03-20T06:34:14;10.30;68.70
44063;DHT22;29727;47.606;19.130;2023-03-20T06:36:40;8.90;67.10
44063;DHT22;29727;47.606;19.130;2023-03-20T06:39:06;8.90;67.50
44063;DHT22;29727;47.606;19.130;2023-03-20T06:41:33;8.90;67.70
44063;DHT22;29727;47.606;19.130;2023-03-20T06:43:58;9.00;67.70
44063;DHT22;29727;47.606;19.130;2023-03-20T06:46:24;9.00;68.10
44063;DHT22;29727;47.606;19.130;2023-03-20T06:48:50;9.10;68.20
44063;DHT22;29727;47.606;19.130;2023-03-20T06:51:16;9.10;68.00
44063;DHT22;29727;47.606;19.130;2023-03-20T06:53:42;9.20;68.10
44063;DHT22;29727;47.606;19.130;2023-03-20T06:56:09;9.20;67.60
44063;DHT22;29727;47.606;19.130;2023-03-20T06:58:36;9.40;67.10
44063;DHT22;29727;47.606;19.130;2023-03-20T07:01:01;9.40;67.00
44063;DHT22;29727;47.606;19.130;2023-03-20T07:03:33;9.50;66.60
44063;DHT22;29727;47.606;19.130;2023-03-20T07:06:00;9.60;66.20
44063;DHT22;29727;47.606;19.130;2023-03-20T07:08:25;9.70;66.20
44063;DHT22;29727;47.606;19.130;2023-03-20T07:10:51;9.80;65.90
44063;DHT22;29727;47.606;19.130;2023-03-20T07:13:17;9.90;65.40
44063;DHT22;29727;47.606;19.130;2023-03-20T07:15:43;10.00;65.00
44063;DHT22;29727;47.606;19.130;2023-03-20T07:18:09;10.10;62.10
44063;DHT22;29727;47.606;19.130;2023-03-20T16:57:08;18.50;47.00
44063;DHT22;29727;47.606;19.130;2023-03-20T16:59:38;18.50;47.10
44063;DHT22;29727;47.606;19.130;2023-03-20T17:02:35;18.40;47.30
44063;DHT22;29727;47.606;19.130;2023-03-20T17:05:05;18.30;47.50
44063;DHT22;29727;47.606;19.130;2023-03-20T17:07:31;18.20;47.00
44063;DHT22;29727;47.606;19.130;2023-03-20T17:12:43;18.20;47.60
44063;DHT22;29727;47.606;19.130;2023-03-20T17:15:14;18.20;47.50
44063;DHT22;29727;47.606;19.130;2023-03-20T17:17:40;18.20;47.40
44063;DHT22;29727;47.606;19.130;2023-03-20T17:20:08;18.20;47.60
44063;DHT22;29727;47.606;19.130;2023-03-20T17:22:36;18.20;47.60
44063;DHT22;29727;47.606;19.130;2023-03-20T17:25:01;18.20;47.20
44063;DHT22;29727;47.606;19.130;2023-03-20T17:27:28;18.20;47.40
44063;DHT22;29727;47.606;19.130;2023-03-20T17:29:54;18.20;47.10
44063;DHT22;29727;47.606;19.130;2023-03-20T17:32:21;18.20;47.60
44063;DHT22;29727;47.606;19.130;2023-03-20T17:34:49;18.20;48.20
44063;DHT22;29727;47.606;19.130;2023-03-20T17:37:22;18.10;48.30
44063;DHT22;29727;47.606;19.130;2023-03-20T17:39:48;18.10;48.20
44063;DHT22;29727;47.606;19.130;2023-03-20T17:42:22;18.10;48.40
44063;DHT22;29727;47.606;19.130;2023-03-20T17:44:51;18.00;48.50
44063;DHT22;29727;47.606;19.130;2023-03-20T17:47:27;17.90;48.30
44063;DHT22;29727;47.606;19.130;2023-03-20T17:49:53;17.90;48.70
44063;DHT22;29727;47.606;19.130;2023-03-20T17:52:28;17.80;48.80
44063;DHT22;29727;47.606;19.130;2023-03-20T17:54:55;17.80;48.90
44063;DHT22;29727;47.606;19.130;2023-03-20T17:57:36;17.70;48.30
44063;DHT22;29727;47.606;19.130;2023-03-20T18:00:05;17.60;49.10
44063;DHT22;29727;47.606;19.130;2023-03-20T18:02:31;17.60;49.40
44063;DHT22;29727;47.606;19.130;2023-03-20T18:04:57;17.50;49.50
44063;DHT22;29727;47.606;19.130;2023-03-20T18:07:23;17.40;49.60
44063;DHT22;29727;47.606;19.130;2023-03-20T18:09:48;17.40;49.70
44063;DHT22;29727;47.606;19.130;2023-03-20T18:12:16;17.30;50.00
44063;DHT22;29727;47.606;19.130;2023-03-20T18:14:44;17.20;50.20
44063;DHT22;29727;47.606;19.130;2023-03-20T18:17:14;17.10;50.40
44063;DHT22;29727;47.606;19.130;2023-03-20T18:19:41;17.10;50.30
44063;DHT22;29727;47.606;19.130;2023-03-20T18:22:07;17.00;50.60
44063;DHT22;29727;47.606;19.130;2023-03-20T18:24:34;16.90;50.50
44063;DHT22;29727;47.606;19.130;2023-03-20T18:27:00;16.80;50.80
44063;DHT22;29727;47.606;19.130;2023-03-20T18:29:26;16.80;51.00
44063;DHT22;29727;47.606;19.130;2023-03-20T18:31:52;16.70;51.00
44063;DHT22;29727;47.606;19.130;2023-03-20T18:34:18;16.60;51.20
44063;DHT22;29727;47.606;19.130;2023-03-20T18:36:44;16.50;51.70
44063;DHT22;29727;47.606;19.130;2023-03-20T18:39:16;16.50;51.80
44063;DHT22;29727;47.606;19.130;2023-03-20T18:41:43;16.40;51.80
44063;DHT22;29727;47.606;19.130;2023-03-20T18:44:08;16.30;52.00
44063;DHT22;29727;47.606;19.130;2023-03-20T18:46:34;16.20;52.00
44063;DHT22;29727;47.606;19.130;2023-03-20T18:48:59;16.10;52.30
44063;DHT22;29727;47.606;19.130;2023-03-20T18:51:25;16.10;52.60
44063;DHT22;29727;47.606;19.130;2023-03-20T18:53:51;16.00;52.80
44063;DHT22;29727;47.606;19.130;2023-03-20T18:56:19;15.90;53.00
44063;DHT22;29727;47.606;19.130;2023-03-20T18:58:45;15.80;53.00
44063;DHT22;29727;47.606;19.130;2023-03-20T19:01:12;15.70;52.70
44063;DHT22;29727;47.606;19.130;2023-03-20T19:03:41;15.70;53.30
44063;DHT22;29727;47.606;19.130;2023-03-20T19:06:13;15.60;53.50
44063;DHT22;29727;47.606;19.130;2023-03-20T19:08:39;15.60;53.60
44063;DHT22;29727;47.606;19.130;2023-03-20T19:11:05;15.50;54.30
44063;DHT22;29727;47.606;19.130;2023-03-20T19:13:34;15.40;54.00
44063;DHT22;29727;47.606;19.130;2023-03-20T19:16:01;15.40;54.20
44063;DHT22;29727;47.606;19.130;2023-03-20T19:18:26;15.30;54.30
44063;DHT22;29727;47.606;19.130;2023-03-20T19:20:54;15.30;54.60
44063;DHT22;29727;47.606;19.130;2023-03-20T19:23:22;15.20;54.50
44063;DHT22;29727;47.606;19.130;2023-03-20T19:25:53;15.10;55.10
44063;DHT22;29727;47.606;19.130;2023-03-20T19:28:24;15.10;54.70
44063;DHT22;29727;47.606;19.130;2023-03-20T19:30:52;15.00;55.10
44063;DHT22;29727;47.606;19.130;2023-03-20T19:33:18;14.90;55.10
44063;DHT22;29727;47.606;19.130;2023-03-20T19:35:44;14.90;55.40
44063;DHT22;29727;47.606;19.130;2023-03-20T19:38:14;14.80;55.10
44063;DHT22;29727;47.606;19.130;2023-03-20T19:40:45;14.70;55.30
44063;DHT22;29727;47.606;19.130;2023-03-20T19:43:11;14.70;55.50
44063;DHT22;29727;47.606;19.130;2023-03-20T19:45:40;14.60;55.90
44063;DHT22;29727;47.606;19.130;2023-03-20T19:48:18;14.50;55.90
44063;DHT22;29727;47.606;19.130;2023-03-20T19:50:45;14.50;56.20
44063;DHT22;29727;47.606;19.130;2023-03-20T19:53:13;14.50;55.90
44063;DHT22;29727;47.606;19.130;2023-03-20T19:55:40;14.30;55.90
44063;DHT22;29727;47.606;19.130;2023-03-20T19:58:06;14.30;56.20
44063;DHT22;29727;47.606;19.130;2023-03-20T20:00:34;14.20;56.40
44063;DHT22;29727;47.606;19.130;2023-03-20T20:03:02;14.20;56.40
44063;DHT22;29727;47.606;19.130;2023-03-20T20:05:34;14.10;56.60
44063;DHT22;29727;47.606;19.130;2023-03-20T20:08:03;14.00;57.00
44063;DHT22;29727;47.606;19.130;2023-03-20T20:10:36;13.90;57.40
44063;DHT22;29727;47.606;19.130;2023-03-20T20:13:03;13.80;57.60
44063;DHT22;29727;47.606;19.130;2023-03-20T20:15:31;13.70;57.70
44063;DHT22;29727;47.606;19.130;2023-03-20T20:17:59;13.70;57.80
44063;DHT22;29727;47.606;19.130;2023-03-20T20:20:25;13.70;58.00
44063;DHT22;29727;47.606;19.130;2023-03-20T20:22:51;13.60;58.00
44063;DHT22;29727;47.606;19.130;2023-03-20T20:25:19;13.60;57.80
44063;DHT22;29727;47.606;19.130;2023-03-20T20:27:47;13.60;58.40
44063;DHT22;29727;47.606;19.130;2023-03-20T20:30:19;13.50;58.50
44063;DHT22;29727;47.606;19.130;2023-03-20T20:32:52;13.50;58.70
44063;DHT22;29727;47.606;19.130;2023-03-20T20:35:17;13.40;58.50
44063;DHT22;29727;47.606;19.130;2023-03-20T20:37:46;13.40;58.60
44063;DHT22;29727;47.606;19.130;2023-03-20T20:40:14;13.30;58.50
44063;DHT22;29727;47.606;19.130;2023-03-20T20:42:40;13.30;58.70
44063;DHT22;29727;47.606;19.130;2023-03-20T20:45:08;13.30;58.90
44063;DHT22;29727;47.606;19.130;2023-03-20T20:47:36;13.20;58.80
44063;DHT22;29727;47.606;19.130;2023-03-20T20:50:02;13.20;58.90
44063;DHT22;29727;47.606;19.130;2023-03-20T20:52:29;13.10;58.70
44063;DHT22;29727;47.606;19.130;2023-03-20T20:54:55;13.10;58.90
44063;DHT22;29727;47.606;19.130;2023-03-20T20:57:21;13.10;59.20
44063;DHT22;29727;47.606;19.130;2023-03-20T20:59:46;13.00;59.20
44063;DHT22;29727;47.606;19.130;2023-03-20T21:02:12;13.00;59.40
44063;DHT22;29727;47.606;19.130;2023-03-20T21:04:41;12.90;59.40
44063;DHT22;29727;47.606;19.130;2023-03-20T21:07:12;12.80;59.80
44063;DHT22;29727;47.606;19.130;2023-03-20T21:09:38;12.80;60.10
44063;DHT22;29727;47.606;19.130;2023-03-20T21:12:04;12.70;60.40
44063;DHT22;29727;47.606;19.130;2023-03-20T21:14:31;12.70;60.60
44063;DHT22;29727;47.606;19.130;2023-03-20T21:16:57;12.60;60.20
44063;DHT22;29727;47.606;19.130;2023-03-20T21:19:31;12.60;60.80
44063;DHT22;29727;47.606;19.130;2023-03-20T21:21:57;12.60;60.80
44063;DHT22;29727;47.606;19.130;2023-03-20T21:24:23;12.50;60.90
44063;DHT22;29727;47.606;19.130;2023-03-20T21:26:49;12.50;61.10
44063;DHT22;29727;47.606;19.130;2023-03-20T21:29:16;12.50;61.30
44063;DHT22;29727;47.606;19.130;2023-03-20T21:31:43;12.40;61.20
44063;DHT22;29727;47.606;19.130;2023-03-20T21:34:09;12.40;61.20
44063;DHT22;29727;47.606;19.130;2023-03-20T21:36:35;12.40;61.30
44063;DHT22;29727;47.606;19.130;2023-03-20T21:39:00;12.30;61.10
44063;DHT22;29727;47.606;19.130;2023-03-20T21:41:26;12.30;61.10
44063;DHT22;29727;47.606;19.130;2023-03-20T21:43:52;12.30;61.10
44063;DHT22;29727;47.606;19.130;2023-03-20T21:46:18;12.20;61.10
44063;DHT22;29727;47.606;19.130;2023-03-20T21:48:43;12.20;60.80
44063;DHT22;29727;47.606;19.130;2023-03-20T21:51:09;12.20;61.20
44063;DHT22;29727;47.606;19.130;2023-03-20T21:53:35;12.20;61.00
44063;DHT22;29727;47.606;19.130;2023-03-20T21:56:02;12.10;61.00
44063;DHT22;29727;47.606;19.130;2023-03-20T21:58:27;12.10;61.10
44063;DHT22;29727;47.606;19.130;2023-03-20T22:00:53;12.10;61.20
44063;DHT22;29727;47.606;19.130;2023-03-20T22:03:19;12.00;61.40
44063;DHT22;29727;47.606;19.130;2023-03-20T22:05:46;11.90;61.20
44063;DHT22;29727;47.606;19.130;2023-03-20T22:08:11;11.90;61.70
44063;DHT22;29727;47.606;19.130;2023-03-20T22:10:38;11.90;61.90
44063;DHT22;29727;47.606;19.130;2023-03-20T22:13:05;11.80;61.90
44063;DHT22;29727;47.606;19.130;2023-03-20T22:15:31;11.80;62.00
44063;DHT22;29727;47.606;19.130;2023-03-20T22:17:57;11.80;62.10
44063;DHT22;29727;47.606;19.130;2023-03-20T22:20:22;11.70;62.10
44063;DHT22;29727;47.606;19.130;2023-03-20T22:22:49;11.70;62.40
44063;DHT22;29727;47.606;19.130;2023-03-20T22:25:16;11.70;62.40
44063;DHT22;29727;47.606;19.130;2023-03-20T22:27:41;11.60;62.30
44063;DHT22;29727;47.606;19.130;2023-03-20T22:30:09;11.60;62.40
44063;DHT22;29727;47.606;19.130;2023-03-20T22:32:35;11.60;62.60
44063;DHT22;29727;47.606;19.130;2023-03-20T22:35:03;11.50;62.70
44063;DHT22;29727;47.606;19.130;2023-03-20T22:37:29;11.50;62.70
44063;DHT22;29727;47.606;19.130;2023-03-20T22:39:58;11.50;62.60
44063;DHT22;29727;47.606;19.130;2023-03-20T22:42:23;11.50;62.80
44063;DHT22;29727;47.606;19.130;2023-03-20T22:44:49;11.40;62.90
44063;DHT22;29727;47.606;19.130;2023-03-20T22:47:17;11.40;63.00
44063;DHT22;29727;47.606;19.130;2023-03-20T22:49:43;11.40;63.00
44063;DHT22;29727;47.606;19.130;2023-03-20T22:52:09;11.30;62.80
44063;DHT22;29727;47.606;19.130;2023-03-20T22:54:35;11.30;62.90
44063;DHT22;29727;47.606;19.130;2023-03-20T22:57:01;11.30;62.80
44063;DHT22;29727;47.606;19.130;2023-03-20T22:59:26;11.20;62.90
44063;DHT22;29727;47.606;19.130;2023-03-20T23:01:52;11.20;62.90
44063;DHT22;29727;47.606;19.130;2023-03-20T23:04:18;11.20;63.20
44063;DHT22;29727;47.606;19.130;2023-03-20T23:06:44;11.10;63.60
44063;DHT22;29727;47.606;19.130;2023-03-20T23:09:10;11.10;65.70
44063;DHT22;29727;47.606;19.130;2023-03-20T23:11:35;11.10;65.80
44063;DHT22;29727;47.606;19.130;2023-03-20T23:14:03;11.10;67.70
44063;DHT22;29727;47.606;19.130;2023-03-20T23:16:29;11.10;70.80
44063;DHT22;29727;47.606;19.130;2023-03-20T23:18:55;11.20;69.80
44063;DHT22;29727;47.606;19.130;2023-03-20T23:21:21;11.20;70.20
44063;DHT22;29727;47.606;19.130;2023-03-20T23:23:47;11.30;71.60
44063;DHT22;29727;47.606;19.130;2023-03-20T23:26:15;11.30;72.30
44063;DHT22;29727;47.606;19.130;2023-03-20T23:28:43;11.40;72.70
44063;DHT22;29727;47.606;19.130;2023-03-20T23:31:12;11.50;72.30
44063;DHT22;29727;47.606;19.130;2023-03-20T23:33:44;11.70;72.00
44063;DHT22;29727;47.606;19.130;2023-03-20T23:36:11;11.80;71.70
44063;DHT22;29727;47.606;19.130;2023-03-20T23:38:37;11.90;71.10
44063;DHT22;29727;47.606;19.130;2023-03-20T23:41:03;12.00;70.40
44063;DHT22;29727;47.606;19.130;2023-03-20T23:43:29;12.10;70.40
44063;DHT22;29727;47.606;19.130;2023-03-20T23:45:54;12.20;70.20
44063;DHT22;29727;47.606;19.130;2023-03-20T23:48:20;12.20;70.50
44063;DHT22;29727;47.606;19.130;2023-03-20T23:50:47;12.30;70.30
44063;DHT22;29727;47.606;19.130;2023-03-20T23:53:14;12.40;69.90
44063;DHT22;29727;47.606;19.130;2023-03-20T23:55:41;12.40;69.30
44063;DHT22;29727;47.606;19.130;2023-03-20T23:58:07;12.40;69.20
